sensor_id;sensor_type;location;lat;lon;timestamp;pressure;altitude;pressure_sealevel;temperature;humidity
20013;BME280;10167;42.852;23.042;2023-02-16T00:01:43;96121.16;;;0.20;100.00
20013;BME280;10167;42.852;23.042;2023-02-16T00:04:14;96122.41;;;0.16;100.00
20013;BME280;10167;42.852;23.042;2023-02-16T00:06:46;96114.41;;;0.27;100.00
20013;BME280;10167;42.852;23.042;2023-02-16T00:09:15;96114.41;;;0.27;100.00
20013;BME280;10167;42.852;23.042;2023-02-16T00:11:43;96115.66;;;0.23;100.00
20013;BME280;10167;42.852;23.042;2023-02-16T00:14:30;96110.03;;;0.27;100.00
20013;BME280;10167;42.852;23.042;2023-02-16T00:17:00;96112.53;;;0.19;100.00
20013;BME280;10167;42.852;23.042;2023-02-16T00:19:30;96108.97;;;0.20;100.00
20013;BME280;10167;42.852;23.042;2023-02-16T00:22:03;96117.19;;;0.16;100.00
20013;BME280;10167;42.852;23.042;2023-02-16T00:24:32;96111.84;;;0.17;100.00
20013;BME280;10167;42.852;23.042;2023-02-16T00:27:00;96109.81;;;0.11;100.00
20013;BME280;10167;42.852;23.042;2023-02-16T00:29:29;96109.56;;;0.05;100.00
20013;BME280;10167;42.852;23.042;2023-02-16T00:32:00;96105.44;;;0.02;100.00
20013;BME280;10167;42.852;23.042;2023-02-16T00:34:30;96106.00;;;0.06;100.00
20013;BME280;10167;42.852;23.042;2023-02-16T00:36:59;96112.47;;;-0.08;100.00
20013;BME280;10167;42.852;23.042;2023-02-16T00:39:30;96111.38;;;-0.06;100.00
20013;BME280;10167;42.852;23.042;2023-02-16T00:42:00;96111.66;;;-0.09;100.00
20013;BME280;10167;42.852;23.042;2023-02-16T00:44:31;96109.03;;;-0.09;100.00
20013;BME280;10167;42.852;23.042;2023-02-16T00:47:01;96114.94;;;-0.07;100.00
20013;BME280;10167;42.852;23.042;2023-02-16T00:49:30;96105.41;;;-0.25;100.00
20013;BME280;10167;42.852;23.042;2023-02-16T00:51:58;96105.91;;;-0.12;100.00
20013;BME280;10167;42.852;23.042;2023-02-16T00:54:27;96111.78;;;-0.10;100.00
20013;BME280;10167;42.852;23.042;2023-02-16T00:56:59;96113.16;;;-0.06;100.00
20013;BME280;10167;42.852;23.042;2023-02-16T00:59:28;96106.56;;;-0.10;100.00
20013;BME280;10167;42.852;23.042;2023-02-16T01:01:56;96109.88;;;-0.08;100.00
20013;BME280;10167;42.852;23.042;2023-02-16T01:04:25;96109.34;;;-0.12;100.00
20013;BME280;10167;42.852;23.042;2023-02-16T01:06:54;96102.09;;;-0.18;100.00
20013;BME280;10167;42.852;23.042;2023-02-16T01:09:39;96099.59;;;-0.10;100.00
20013;BME280;10167;42.852;23.042;2023-02-16T01:12:28;96106.06;;;-0.14;100.00
20013;BME280;10167;42.852;23.042;2023-02-16T01:14:57;96095.78;;;-0.15;100.00
20013;BME280;10167;42.852;23.042;2023-02-16T01:17:25;96097.47;;;-0.24;100.00
20013;BME280;10167;42.852;23.042;2023-02-16T01:19:54;96101.16;;;-0.26;100.00
20013;BME280;10167;42.852;23.042;2023-02-16T01:22:23;96099.50;;;-0.27;100.00
20013;BME280;10167;42.852;23.042;2023-02-16T01:24:52;96094.03;;;-0.24;100.00
20013;BME280;10167;42.852;23.042;2023-02-16T01:27:21;96097.44;;;-0.33;100.00
20013;BME280;10167;42.852;23.042;2023-02-16T01:29:51;96089.66;;;-0.33;100.00
20013;BME280;10167;42.852;23.042;2023-02-16T01:32:19;96084.34;;;-0.42;100.00
20013;BME280;10167;42.852;23.042;2023-02-16T01:34:48;96092.97;;;-0.41;100.00
20013;BME280;10167;42.852;23.042;2023-02-16T01:37:16;96081.88;;;-0.43;100.00
20013;BME280;10167;42.852;23.042;2023-02-16T01:39:45;96091.72;;;-0.37;100.00
20013;BME280;10167;42.852;23.042;2023-02-16T01:42:18;96087.75;;;-0.41;100.00
20013;BME280;10167;42.852;23.042;2023-02-16T01:44:54;96080.78;;;-0.41;100.00
20013;BME280;10167;42.852;23.042;2023-02-16T01:47:35;96080.53;;;-0.47;100.00
20013;BME280;10167;42.852;23.042;2023-02-16T01:50:12;96076.78;;;-0.45;100.00
20013;BME280;10167;42.852;23.042;2023-02-16T01:52:43;96073.53;;;-0.47;100.00
20013;BME280;10167;42.852;23.042;2023-02-16T01:55:13;96075.31;;;-0.47;100.00
20013;BME280;10167;42.852;23.042;2023-02-16T01:57:45;96068.88;;;-0.53;100.00
20013;BME280;10167;42.852;23.042;2023-02-16T02:00:28;96066.97;;;-0.60;100.00
20013;BME280;10167;42.852;23.042;2023-02-16T02:02:57;96066.97;;;-0.51;100.00
20013;BME280;10167;42.852;23.042;2023-02-16T02:05:47;96066.03;;;-0.59;100.00
20013;BME280;10167;42.852;23.042;2023-02-16T02:08:18;96066.13;;;-0.51;100.00
20013;BME280;10167;42.852;23.042;2023-02-16T02:10:50;96065.88;;;-0.58;100.00
20013;BME280;10167;42.852;23.042;2023-02-16T02:13:23;96062.75;;;-0.61;100.00
20013;BME280;10167;42.852;23.042;2023-02-16T02:16:17;96062.59;;;-0.60;100.00
20013;BME280;10167;42.852;23.042;2023-02-16T02:18:47;96062.03;;;-0.54;100.00
20013;BME280;10167;42.852;23.042;2023-02-16T02:21:24;96065.34;;;-0.61;100.00
20013;BME280;10167;42.852;23.042;2023-02-16T02:24:23;96051.25;;;-0.68;100.00
20013;BME280;10167;42.852;23.042;2023-02-16T02:27:08;96051.41;;;-0.70;100.00
20013;BME280;10167;42.852;23.042;2023-02-16T02:32:30;96054.53;;;-0.76;100.00
20013;BME280;10167;42.852;23.042;2023-02-16T02:35:06;96052.38;;;-0.81;100.00
20013;BME280;10167;42.852;23.042;2023-02-16T02:37:43;96058.25;;;-0.88;100.00
20013;BME280;10167;42.852;23.042;2023-02-16T02:40:17;96055.09;;;-0.82;100.00
20013;BME280;10167;42.852;23.042;2023-02-16T02:42:54;96059.50;;;-0.92;100.00
20013;BME280;10167;42.852;23.042;2023-02-16T02:45:25;96049.75;;;-0.90;100.00
20013;BME280;10167;42.852;23.042;2023-02-16T02:47:56;96054.69;;;-0.97;100.00
20013;BME280;10167;42.852;23.042;2023-02-16T02:50:31;96060.97;;;-0.99;100.00
20013;BME280;10167;42.852;23.042;2023-02-16T02:53:02;96058.50;;;-1.01;100.00
20013;BME280;10167;42.852;23.042;2023-02-16T02:55:31;96063.72;;;-1.01;100.00
20013;BME280;10167;42.852;23.042;2023-02-16T02:58:22;96055.94;;;-0.91;100.00
20013;BME280;10167;42.852;23.042;2023-02-16T03:01:10;96056.34;;;-0.96;100.00
20013;BME280;10167;42.852;23.042;2023-02-16T03:03:40;96062.75;;;-0.90;100.00
20013;BME280;10167;42.852;23.042;2023-02-16T03:06:12;96057.84;;;-0.93;100.00
20013;BME280;10167;42.852;23.042;2023-02-16T03:08:43;96048.28;;;-0.93;100.00
20013;BME280;10167;42.852;23.042;2023-02-16T03:11:14;96064.81;;;-0.94;100.00
20013;BME280;10167;42.852;23.042;2023-02-16T03:14:03;96061.94;;;-1.00;100.00
20013;BME280;10167;42.852;23.042;2023-02-16T03:16:33;96055.91;;;-1.01;100.00
20013;BME280;10167;42.852;23.042;2023-02-16T03:19:04;96061.53;;;-1.05;100.00
20013;BME280;10167;42.852;23.042;2023-02-16T03:21:51;96060.72;;;-1.06;100.00
20013;BME280;10167;42.852;23.042;2023-02-16T03:24:38;96054.00;;;-1.08;100.00
20013;BME280;10167;42.852;23.042;2023-02-16T03:27:24;96058.38;;;-1.09;100.00
20013;BME280;10167;42.852;23.042;2023-02-16T03:30:14;96060.41;;;-1.13;100.00
20013;BME280;10167;42.852;23.042;2023-02-16T03:32:44;96063.44;;;-1.07;100.00
20013;BME280;10167;42.852;23.042;2023-02-16T03:35:13;96053.88;;;-1.17;100.00
20013;BME280;10167;42.852;23.042;2023-02-16T03:37:42;96051.00;;;-1.14;100.00
20013;BME280;10167;42.852;23.042;2023-02-16T03:40:12;96054.84;;;-1.18;100.00
20013;BME280;10167;42.852;23.042;2023-02-16T03:42:59;96045.25;;;-1.27;100.00
20013;BME280;10167;42.852;23.042;2023-02-16T03:45:29;96045.09;;;-1.35;100.00
20013;BME280;10167;42.852;23.042;2023-02-16T03:47:59;96048.94;;;-1.39;100.00
20013;BME280;10167;42.852;23.042;2023-02-16T03:50:28;96043.47;;;-1.36;100.00
20013;BME280;10167;42.852;23.042;2023-02-16T03:52:56;96048.50;;;-1.34;100.00
20013;BME280;10167;42.852;23.042;2023-02-16T03:55:33;96042.91;;;-1.30;100.00
20013;BME280;10167;42.852;23.042;2023-02-16T03:58:02;96034.03;;;-1.27;100.00
20013;BME280;10167;42.852;23.042;2023-02-16T04:00:33;96037.41;;;-1.46;100.00
20013;BME280;10167;42.852;23.042;2023-02-16T04:03:02;96045.09;;;-1.35;100.00
20013;BME280;10167;42.852;23.042;2023-02-16T04:05:31;96037.47;;;-1.36;100.00
20013;BME280;10167;42.852;23.042;2023-02-16T04:08:00;96045.50;;;-1.39;100.00
20013;BME280;10167;42.852;23.042;2023-02-16T04:10:29;96044.94;;;-1.43;100.00
20013;BME280;10167;42.852;23.042;2023-02-16T04:12:58;96044.81;;;-1.41;100.00
20013;BME280;10167;42.852;23.042;2023-02-16T04:15:26;96041.41;;;-1.42;100.00
20013;BME280;10167;42.852;23.042;2023-02-16T04:17:56;96040.03;;;-1.46;100.00
20013;BME280;10167;42.852;23.042;2023-02-16T04:20:25;96052.75;;;-1.53;100.00
20013;BME280;10167;42.852;23.042;2023-02-16T04:22:54;96044.69;;;-1.50;100.00
20013;BME280;10167;42.852;23.042;2023-02-16T04:25:23;96046.84;;;-1.55;100.00
20013;BME280;10167;42.852;23.042;2023-02-16T04:27:52;96045.19;;;-1.56;100.00
20013;BME280;10167;42.852;23.042;2023-02-16T04:30:21;96041.00;;;-1.47;100.00
20013;BME280;10167;42.852;23.042;2023-02-16T04:32:50;96047.94;;;-1.57;100.00
20013;BME280;10167;42.852;23.042;2023-02-16T04:35:21;96047.50;;;-1.72;100.00
20013;BME280;10167;42.852;23.042;2023-02-16T04:37:50;96041.28;;;-2.00;100.00
20013;BME280;10167;42.852;23.042;2023-02-16T04:40:18;96051.13;;;-1.94;100.00
20013;BME280;10167;42.852;23.042;2023-02-16T04:42:47;96047.75;;;-1.85;100.00
20013;BME280;10167;42.852;23.042;2023-02-16T04:45:16;96041.59;;;-1.93;100.00
20013;BME280;10167;42.852;23.042;2023-02-16T04:47:44;96050.41;;;-2.05;100.00
20013;BME280;10167;42.852;23.042;2023-02-16T04:50:13;96051.69;;;-1.90;100.00
20013;BME280;10167;42.852;23.042;2023-02-16T04:52:43;96055.09;;;-1.90;100.00
20013;BME280;10167;42.852;23.042;2023-02-16T04:55:12;96051.97;;;-1.93;100.00
20013;BME280;10167;42.852;23.042;2023-02-16T04:57:40;96056.34;;;-1.94;100.00
20013;BME280;10167;42.852;23.042;2023-02-16T05:00:10;96055.91;;;-1.89;100.00
20013;BME280;10167;42.852;23.042;2023-02-16T05:02:39;96062.97;;;-2.01;100.00
20013;BME280;10167;42.852;23.042;2023-02-16T05:05:07;96065.69;;;-2.02;100.00
20013;BME280;10167;42.852;23.042;2023-02-16T05:07:36;96066.28;;;-1.99;100.00
20013;BME280;10167;42.852;23.042;2023-02-16T05:10:07;96067.91;;;-1.98;100.00
20013;BME280;10167;42.852;23.042;2023-02-16T05:12:35;96064.94;;;-1.93;100.00
20013;BME280;10167;42.852;23.042;2023-02-16T05:15:21;96079.25;;;-1.99;100.00
20013;BME280;10167;42.852;23.042;2023-02-16T05:17:50;96076.41;;;-1.96;100.00
20013;BME280;10167;42.852;23.042;2023-02-16T05:20:19;96086.19;;;-2.09;100.00
20013;BME280;10167;42.852;23.042;2023-02-16T05:23:07;96078.56;;;-2.01;100.00
20013;BME280;10167;42.852;23.042;2023-02-16T05:25:38;96075.53;;;-2.06;100.00
20013;BME280;10167;42.852;23.042;2023-02-16T05:28:06;96084.56;;;-2.00;100.00
20013;BME280;10167;42.852;23.042;2023-02-16T05:30:35;96083.13;;;-2.14;100.00
20013;BME280;10167;42.852;23.042;2023-02-16T05:33:04;96089.06;;;-2.02;100.00
20013;BME280;10167;42.852;23.042;2023-02-16T05:35:32;96083.03;;;-2.03;100.00
20013;BME280;10167;42.852;23.042;2023-02-16T05:38:01;96093.19;;;-2.00;100.00
20013;BME280;10167;42.852;23.042;2023-02-16T05:40:30;96097.34;;;-2.18;100.00
20013;BME280;10167;42.852;23.042;2023-02-16T05:43:00;96102.03;;;-2.02;100.00
20013;BME280;10167;42.852;23.042;2023-02-16T05:45:29;96104.63;;;-2.02;100.00
20013;BME280;10167;42.852;23.042;2023-02-16T05:47:58;96104.91;;;-2.05;100.00
20013;BME280;10167;42.852;23.042;2023-02-16T05:50:27;96103.84;;;-2.24;100.00
20013;BME280;10167;42.852;23.042;2023-02-16T05:52:58;96114.38;;;-1.95;100.00
20013;BME280;10167;42.852;23.042;2023-02-16T05:55:27;96117.84;;;-1.85;100.00
20013;BME280;10167;42.852;23.042;2023-02-16T05:57:56;96112.13;;;-1.78;100.00
20013;BME280;10167;42.852;23.042;2023-02-16T06:00:26;96114.16;;;-1.82;100.00
20013;BME280;10167;42.852;23.042;2023-02-16T06:02:59;96112.44;;;-1.72;100.00
20013;BME280;10167;42.852;23.042;2023-02-16T06:05:28;96113.84;;;-1.58;100.00
20013;BME280;10167;42.852;23.042;2023-02-16T06:07:57;96115.09;;;-1.43;100.00
20013;BME280;10167;42.852;23.042;2023-02-16T06:10:26;96123.47;;;-1.30;100.00
20013;BME280;10167;42.852;23.042;2023-02-16T06:12:54;96125.25;;;-1.21;100.00
20013;BME280;10167;42.852;23.042;2023-02-16T06:15:23;96129.38;;;-1.08;100.00
20013;BME280;10167;42.852;23.042;2023-02-16T06:17:53;96128.88;;;-1.02;100.00
20013;BME280;10167;42.852;23.042;2023-02-16T06:20:22;96129.56;;;-0.91;100.00
20013;BME280;10167;42.852;23.042;2023-02-16T06:22:50;96132.56;;;-0.86;100.00
20013;BME280;10167;42.852;23.042;2023-02-16T06:25:19;96132.69;;;-0.78;100.00
20013;BME280;10167;42.852;23.042;2023-02-16T06:27:47;96125.88;;;-0.69;100.00
20013;BME280;10167;42.852;23.042;2023-02-16T06:30:16;96125.28;;;-0.53;100.00
20013;BME280;10167;42.852;23.042;2023-02-16T06:32:45;96128.69;;;-0.33;100.00
20013;BME280;10167;42.852;23.042;2023-02-16T06:35:15;96141.97;;;-0.17;100.00
20013;BME280;10167;42.852;23.042;2023-02-16T06:37:44;96137.81;;;-0.01;100.00
20013;BME280;10167;42.852;23.042;2023-02-16T06:40:13;96140.09;;;0.12;100.00
20013;BME280;10167;42.852;23.042;2023-02-16T06:42:43;96134.16;;;0.29;100.00
20013;BME280;10167;42.852;23.042;2023-02-16T06:45:12;96133.25;;;0.48;100.00
20013;BME280;10167;42.852;23.042;2023-02-16T06:47:41;96132.34;;;0.67;100.00
20013;BME280;10167;42.852;23.042;2023-02-16T06:50:10;96130.84;;;1.09;100.00
20013;BME280;10167;42.852;23.042;2023-02-16T06:52:42;96138.66;;;1.63;100.00
20013;BME280;10167;42.852;23.042;2023-02-16T06:55:10;96137.50;;;2.35;100.00
20013;BME280;10167;42.852;23.042;2023-02-16T06:57:39;96133.19;;;3.02;100.00
20013;BME280;10167;42.852;23.042;2023-02-16T07:00:08;96135.09;;;3.66;100.00
20013;BME280;10167;42.852;23.042;2023-02-16T07:02:36;96134.84;;;4.32;100.00
20013;BME280;10167;42.852;23.042;2023-02-16T07:05:05;96135.03;;;4.78;100.00
20013;BME280;10167;42.852;23.042;2023-02-16T07:07:34;96129.38;;;5.28;100.00
20013;BME280;10167;42.852;23.042;2023-02-16T07:10:05;96135.47;;;5.74;100.00
20013;BME280;10167;42.852;23.042;2023-02-16T07:12:34;96129.56;;;6.10;99.86
20013;BME280;10167;42.852;23.042;2023-02-16T07:15:02;96136.97;;;6.44;97.66
20013;BME280;10167;42.852;23.042;2023-02-16T07:17:31;96138.06;;;6.49;96.92
20013;BME280;10167;42.852;23.042;2023-02-16T07:20:00;96130.28;;;6.41;96.75
20013;BME280;10167;42.852;23.042;2023-02-16T07:22:30;96123.44;;;6.91;95.81
20013;BME280;10167;42.852;23.042;2023-02-16T07:24:59;96127.91;;;6.61;96.70
20013;BME280;10167;42.852;23.042;2023-02-16T07:27:29;96131.16;;;6.92;95.93
20013;BME280;10167;42.852;23.042;2023-02-16T07:29:58;96132.09;;;7.00;95.44
20013;BME280;10167;42.852;23.042;2023-02-16T07:32:28;96122.88;;;7.10;95.83
20013;BME280;10167;42.852;23.042;2023-02-16T07:34:56;96129.38;;;6.64;96.55
20013;BME280;10167;42.852;23.042;2023-02-16T07:37:25;96123.34;;;7.35;95.83
20013;BME280;10167;42.852;23.042;2023-02-16T07:39:54;96128.84;;;7.55;95.27
20013;BME280;10167;42.852;23.042;2023-02-16T07:42:22;96114.94;;;7.68;95.58
20013;BME280;10167;42.852;23.042;2023-02-16T07:44:52;96121.97;;;7.82;95.39
20013;BME280;10167;42.852;23.042;2023-02-16T07:47:21;96126.53;;;7.88;95.17
20013;BME280;10167;42.852;23.042;2023-02-16T07:49:50;96129.16;;;7.88;94.90
20013;BME280;10167;42.852;23.042;2023-02-16T07:52:18;96127.03;;;7.77;95.11
20013;BME280;10167;42.852;23.042;2023-02-16T07:54:47;96117.50;;;7.54;97.07
20013;BME280;10167;42.852;23.042;2023-02-16T07:57:16;96119.53;;;7.59;97.21
20013;BME280;10167;42.852;23.042;2023-02-16T07:59:44;96116.09;;;7.58;97.32
20013;BME280;10167;42.852;23.042;2023-02-16T08:12:49;96122.16;;;9.39;90.74
20013;BME280;10167;42.852;23.042;2023-02-16T08:15:24;96122.81;;;8.59;92.29
20013;BME280;10167;42.852;23.042;2023-02-16T08:17:53;96119.41;;;8.72;93.03
20013;BME280;10167;42.852;23.042;2023-02-16T08:20:22;96121.66;;;9.16;92.55
20013;BME280;10167;42.852;23.042;2023-02-16T08:23:11;96122.75;;;8.87;92.28
20013;BME280;10167;42.852;23.042;2023-02-16T08:25:41;96119.59;;;8.70;96.07
20013;BME280;10167;42.852;23.042;2023-02-16T08:28:11;96122.50;;;9.23;92.50
20013;BME280;10167;42.852;23.042;2023-02-16T08:30:41;96122.69;;;8.74;92.48
20013;BME280;10167;42.852;23.042;2023-02-16T08:33:11;96116.72;;;9.00;94.81
20013;BME280;10167;42.852;23.042;2023-02-16T08:35:40;96115.97;;;9.13;92.33
20013;BME280;10167;42.852;23.042;2023-02-16T08:38:09;96122.09;;;9.20;93.39
20013;BME280;10167;42.852;23.042;2023-02-16T08:40:38;96117.66;;;9.33;92.53
20013;BME280;10167;42.852;23.042;2023-02-16T08:43:07;96119.25;;;9.28;95.03
20013;BME280;10167;42.852;23.042;2023-02-16T08:45:42;96115.03;;;8.23;100.00
20013;BME280;10167;42.852;23.042;2023-02-16T08:48:12;96111.63;;;8.98;99.75
20013;BME280;10167;42.852;23.042;2023-02-16T08:50:44;96111.38;;;9.41;97.28
20013;BME280;10167;42.852;23.042;2023-02-16T08:53:20;96112.94;;;8.74;99.99
20013;BME280;10167;42.852;23.042;2023-02-16T08:55:53;96111.50;;;9.20;97.94
20013;BME280;10167;42.852;23.042;2023-02-16T08:58:23;96121.69;;;8.41;100.00
20013;BME280;10167;42.852;23.042;2023-02-16T09:00:54;96113.47;;;9.04;99.88
20013;BME280;10167;42.852;23.042;2023-02-16T09:03:24;96119.53;;;9.53;98.66
20013;BME280;10167;42.852;23.042;2023-02-16T09:05:53;96114.03;;;8.52;100.00
20013;BME280;10167;42.852;23.042;2023-02-16T09:08:22;96118.97;;;8.62;100.00
20013;BME280;10167;42.852;23.042;2023-02-16T09:10:51;96110.09;;;8.76;99.67
20013;BME280;10167;42.852;23.042;2023-02-16T09:13:20;96114.28;;;9.59;97.38
20013;BME280;10167;42.852;23.042;2023-02-16T09:15:49;96110.78;;;9.52;97.26
20013;BME280;10167;42.852;23.042;2023-02-16T09:18:21;96111.47;;;10.00;94.33
20013;BME280;10167;42.852;23.042;2023-02-16T09:20:50;96108.84;;;10.46;92.94
20013;BME280;10167;42.852;23.042;2023-02-16T09:23:19;96100.63;;;9.62;96.14
20013;BME280;10167;42.852;23.042;2023-02-16T09:25:48;96102.34;;;10.36;93.71
20013;BME280;10167;42.852;23.042;2023-02-16T09:28:18;96105.13;;;10.67;91.92
20013;BME280;10167;42.852;23.042;2023-02-16T09:30:47;96109.16;;;10.76;90.80
20013;BME280;10167;42.852;23.042;2023-02-16T09:33:18;96100.22;;;11.28;89.65
20013;BME280;10167;42.852;23.042;2023-02-16T09:35:49;96091.41;;;10.90;89.96
20013;BME280;10167;42.852;23.042;2023-02-16T09:38:18;96091.56;;;11.46;88.96
20013;BME280;10167;42.852;23.042;2023-02-16T09:40:48;96092.97;;;11.49;88.11
20013;BME280;10167;42.852;23.042;2023-02-16T09:43:32;96089.66;;;11.91;86.32
20013;BME280;10167;42.852;23.042;2023-02-16T09:46:11;96087.13;;;10.89;88.17
20013;BME280;10167;42.852;23.042;2023-02-16T09:48:44;96088.06;;;11.08;89.57
20013;BME280;10167;42.852;23.042;2023-02-16T09:51:20;96085.53;;;11.64;87.21
20013;BME280;10167;42.852;23.042;2023-02-16T09:54:11;96072.63;;;12.06;85.39
20013;BME280;10167;42.852;23.042;2023-02-16T09:56:48;96071.34;;;12.33;84.95
20013;BME280;10167;42.852;23.042;2023-02-16T09:59:31;96071.94;;;12.35;84.93
20013;BME280;10167;42.852;23.042;2023-02-16T10:02:15;96069.47;;;12.77;82.34
20013;BME280;10167;42.852;23.042;2023-02-16T10:05:02;96070.22;;;12.84;83.29
20013;BME280;10167;42.852;23.042;2023-02-16T10:07:44;96066.41;;;13.09;82.03
20013;BME280;10167;42.852;23.042;2023-02-16T10:10:21;96058.97;;;13.00;82.54
20013;BME280;10167;42.852;23.042;2023-02-16T10:12:54;96053.38;;;13.08;81.60
20013;BME280;10167;42.852;23.042;2023-02-16T10:15:26;96051.38;;;13.03;81.00
20013;BME280;10167;42.852;23.042;2023-02-16T10:17:58;96052.94;;;12.75;81.28
20013;BME280;10167;42.852;23.042;2023-02-16T10:20:30;96050.31;;;13.41;80.28
20013;BME280;10167;42.852;23.042;2023-02-16T10:23:08;96041.00;;;13.62;79.94
20013;BME280;10167;42.852;23.042;2023-02-16T10:25:45;96043.19;;;13.65;78.74
20013;BME280;10167;42.852;23.042;2023-02-16T10:28:17;96042.53;;;13.39;79.05
20013;BME280;10167;42.852;23.042;2023-02-16T10:30:52;96031.69;;;13.94;77.87
20013;BME280;10167;42.852;23.042;2023-02-16T10:33:35;96033.19;;;14.13;76.43
20013;BME280;10167;42.852;23.042;2023-02-16T10:36:15;96028.22;;;14.64;74.45
20013;BME280;10167;42.852;23.042;2023-02-16T10:38:54;96013.94;;;15.21;73.53
20013;BME280;10167;42.852;23.042;2023-02-16T10:41:30;96017.38;;;15.34;72.16
20013;BME280;10167;42.852;23.042;2023-02-16T10:44:06;96015.75;;;15.33;73.42
20013;BME280;10167;42.852;23.042;2023-02-16T10:46:40;96004.38;;;15.25;71.29
20013;BME280;10167;42.852;23.042;2023-02-16T10:49:13;96007.91;;;15.71;71.22
20013;BME280;10167;42.852;23.042;2023-02-16T10:51:46;96001.22;;;15.69;72.04
20013;BME280;10167;42.852;23.042;2023-02-16T10:54:23;95986.84;;;15.01;72.31
20013;BME280;10167;42.852;23.042;2023-02-16T10:56:56;95985.84;;;15.47;71.54
20013;BME280;10167;42.852;23.042;2023-02-16T10:59:35;95993.34;;;15.95;70.17
20013;BME280;10167;42.852;23.042;2023-02-16T11:02:17;95982.09;;;15.77;69.03
20013;BME280;10167;42.852;23.042;2023-02-16T11:04:48;95982.59;;;16.46;69.50
20013;BME280;10167;42.852;23.042;2023-02-16T11:07:20;95973.50;;;16.63;67.51
20013;BME280;10167;42.852;23.042;2023-02-16T11:09:52;95976.19;;;16.85;65.94
20013;BME280;10167;42.852;23.042;2023-02-16T11:12:25;95971.34;;;17.31;63.55
20013;BME280;10167;42.852;23.042;2023-02-16T11:14:58;95961.88;;;16.96;64.23
20013;BME280;10167;42.852;23.042;2023-02-16T11:17:31;95971.06;;;17.05;62.34
20013;BME280;10167;42.852;23.042;2023-02-16T11:20:04;95966.47;;;17.28;61.34
20013;BME280;10167;42.852;23.042;2023-02-16T11:22:37;95971.78;;;17.50;60.34
20013;BME280;10167;42.852;23.042;2023-02-16T11:25:24;95963.56;;;17.83;57.40
20013;BME280;10167;42.852;23.042;2023-02-16T11:27:55;95964.88;;;17.54;54.63
20013;BME280;10167;42.852;23.042;2023-02-16T11:30:30;95970.41;;;18.06;53.54
20013;BME280;10167;42.852;23.042;2023-02-16T11:33:01;95949.19;;;17.99;53.80
20013;BME280;10167;42.852;23.042;2023-02-16T11:35:31;95950.88;;;17.47;52.18
20013;BME280;10167;42.852;23.042;2023-02-16T11:38:26;95947.88;;;17.16;52.71
20013;BME280;10167;42.852;23.042;2023-02-16T11:40:57;95947.22;;;17.26;52.07
20013;BME280;10167;42.852;23.042;2023-02-16T11:43:30;95935.41;;;17.54;51.67
20013;BME280;10167;42.852;23.042;2023-02-16T11:46:01;95943.16;;;16.75;52.80
20013;BME280;10167;42.852;23.042;2023-02-16T11:48:33;95942.28;;;17.45;51.39
20013;BME280;10167;42.852;23.042;2023-02-16T11:51:04;95940.56;;;17.60;49.00
20013;BME280;10167;42.852;23.042;2023-02-16T11:53:35;95932.56;;;17.38;48.48
20013;BME280;10167;42.852;23.042;2023-02-16T11:56:10;95932.59;;;18.02;46.62
20013;BME280;10167;42.852;23.042;2023-02-16T11:58:40;95919.53;;;18.11;46.25
20013;BME280;10167;42.852;23.042;2023-02-16T12:01:18;95921.88;;;18.02;45.48
20013;BME280;10167;42.852;23.042;2023-02-16T12:03:59;95920.75;;;18.35;44.94
20013;BME280;10167;42.852;23.042;2023-02-16T12:06:41;95914.63;;;18.45;42.94
20013;BME280;10167;42.852;23.042;2023-02-16T12:09:23;95904.84;;;18.76;41.72
20013;BME280;10167;42.852;23.042;2023-02-16T12:12:07;95902.47;;;18.84;41.38
20013;BME280;10167;42.852;23.042;2023-02-16T12:14:49;95907.13;;;18.47;39.96
20013;BME280;10167;42.852;23.042;2023-02-16T12:17:36;95905.19;;;18.37;40.03
20013;BME280;10167;42.852;23.042;2023-02-16T12:20:28;95894.19;;;18.34;40.15
20013;BME280;10167;42.852;23.042;2023-02-16T12:23:03;95894.84;;;18.09;40.19
20013;BME280;10167;42.852;23.042;2023-02-16T12:25:43;95890.44;;;17.61;40.08
20013;BME280;10167;42.852;23.042;2023-02-16T12:28:24;95892.25;;;17.50;40.51
20013;BME280;10167;42.852;23.042;2023-02-16T12:31:01;95882.91;;;17.21;41.56
20013;BME280;10167;42.852;23.042;2023-02-16T12:33:45;95883.78;;;17.31;41.34
20013;BME280;10167;42.852;23.042;2023-02-16T12:36:32;95887.59;;;17.35;40.89
20013;BME280;10167;42.852;23.042;2023-02-16T12:39:14;95873.16;;;16.61;43.23
20013;BME280;10167;42.852;23.042;2023-02-16T12:41:55;95878.34;;;16.24;42.86
20013;BME280;10167;42.852;23.042;2023-02-16T12:44:32;95869.50;;;16.02;43.82
20013;BME280;10167;42.852;23.042;2023-02-16T12:47:03;95863.13;;;15.86;43.47
20013;BME280;10167;42.852;23.042;2023-02-16T12:49:42;95865.84;;;16.29;43.75
20013;BME280;10167;42.852;23.042;2023-02-16T12:52:23;95855.50;;;16.38;43.42
20013;BME280;10167;42.852;23.042;2023-02-16T12:55:09;95857.19;;;16.44;43.35
20013;BME280;10167;42.852;23.042;2023-02-16T12:57:39;95857.88;;;16.78;43.01
20013;BME280;10167;42.852;23.042;2023-02-16T13:00:19;95863.50;;;17.03;41.54
20013;BME280;10167;42.852;23.042;2023-02-16T13:02:54;95849.41;;;17.18;42.04
20013;BME280;10167;42.852;23.042;2023-02-16T13:05:28;95848.59;;;17.18;41.98
20013;BME280;10167;42.852;23.042;2023-02-16T13:08:06;95849.94;;;17.47;40.71
20013;BME280;10167;42.852;23.042;2023-02-16T13:10:50;95839.91;;;17.64;40.75
20013;BME280;10167;42.852;23.042;2023-02-16T13:13:23;95843.78;;;17.47;39.30
20013;BME280;10167;42.852;23.042;2023-02-16T13:16:00;95835.78;;;17.20;40.83
20013;BME280;10167;42.852;23.042;2023-02-16T13:18:34;95843.22;;;17.13;41.14
20013;BME280;10167;42.852;23.042;2023-02-16T13:21:09;95832.00;;;17.16;40.14
20013;BME280;10167;42.852;23.042;2023-02-16T13:23:51;95826.31;;;17.07;39.97
20013;BME280;10167;42.852;23.042;2023-02-16T13:26:36;95831.53;;;16.92;40.66
20013;BME280;10167;42.852;23.042;2023-02-16T13:29:25;95825.75;;;17.05;40.71
20013;BME280;10167;42.852;23.042;2023-02-16T13:32:12;95825.13;;;16.93;39.28